Cruzville, New Mexico
Current Conditions -  °F | °C
As of 5:15 AM on Sunday 23 Nov 2014 (Local Time) from KJTC Reporting Station
Clear Clear  
Wind Chill: 27°   Ceiling: Unl
Heat Index: 37°   Visibility: 10mi
Dew Point: 21°   Wind: 21mph
Humidity: 52%   Direction: 260°W
Pressure: 29.97"   Gusts: 33mph
Location:  33.6665°N, 108.765°W
Report Text: KJTC 231215Z AUTO 26018G29KT 10SM CLR 03/M06 A2997 RMK AO2
Loading
Personal Weather Stations






























Interactive Weather Map New forecast layout! Learn more

10-Day Weather Forecast

Advertisements
Track Severe Weather on mobile